sensor_id;sensor_type;location;lat;lon;timestamp;temperature;humidity
4324;DHT22;2175;51.018;6.994;2023-03-24T00:00:13;12.90;99.90
4324;DHT22;2175;51.018;6.994;2023-03-24T00:02:41;12.90;99.90
4324;DHT22;2175;51.018;6.994;2023-03-24T00:05:15;12.90;99.90
4324;DHT22;2175;51.018;6.994;2023-03-24T00:07:42;12.90;99.90
4324;DHT22;2175;51.018;6.994;2023-03-24T00:10:12;12.90;99.90
4324;DHT22;2175;51.018;6.994;2023-03-24T00:12:40;12.90;99.90
4324;DHT22;2175;51.018;6.994;2023-03-24T00:15:09;13.00;99.90
4324;DHT22;2175;51.018;6.994;2023-03-24T00:17:36;13.10;99.90
4324;DHT22;2175;51.018;6.994;2023-03-24T00:20:07;13.10;99.90
4324;DHT22;2175;51.018;6.994;2023-03-24T00:22:40;13.10;99.90
4324;DHT22;2175;51.018;6.994;2023-03-24T00:25:10;13.20;99.90
4324;DHT22;2175;51.018;6.994;2023-03-24T00:27:36;13.10;99.90
4324;DHT22;2175;51.018;6.994;2023-03-24T00:30:07;13.10;99.90
4324;DHT22;2175;51.018;6.994;2023-03-24T00:32:34;13.10;99.90
4324;DHT22;2175;51.018;6.994;2023-03-24T00:35:04;13.20;99.90
4324;DHT22;2175;51.018;6.994;2023-03-24T00:37:30;13.30;99.90
4324;DHT22;2175;51.018;6.994;2023-03-24T00:39:56;13.30;99.90
4324;DHT22;2175;51.018;6.994;2023-03-24T00:42:21;13.30;99.90
4324;DHT22;2175;51.018;6.994;2023-03-24T00:44:49;13.30;99.90
4324;DHT22;2175;51.018;6.994;2023-03-24T00:47:15;13.30;99.90
4324;DHT22;2175;51.018;6.994;2023-03-24T00:49:42;13.30;99.90
4324;DHT22;2175;51.018;6.994;2023-03-24T00:52:17;13.20;99.90
4324;DHT22;2175;51.018;6.994;2023-03-24T00:54:49;13.20;99.90
4324;DHT22;2175;51.018;6.994;2023-03-24T00:57:16;13.10;99.90
4324;DHT22;2175;51.018;6.994;2023-03-24T00:59:51;13.10;99.90
4324;DHT22;2175;51.018;6.994;2023-03-24T01:02:20;13.00;99.90
4324;DHT22;2175;51.018;6.994;2023-03-24T01:04:51;13.00;99.90
4324;DHT22;2175;51.018;6.994;2023-03-24T01:07:19;12.90;99.90
4324;DHT22;2175;51.018;6.994;2023-03-24T01:09:46;12.90;99.90
4324;DHT22;2175;51.018;6.994;2023-03-24T01:12:31;12.80;99.90
4324;DHT22;2175;51.018;6.994;2023-03-24T01:14:59;12.80;99.90
4324;DHT22;2175;51.018;6.994;2023-03-24T01:17:25;12.80;99.90
4324;DHT22;2175;51.018;6.994;2023-03-24T01:19:52;12.90;99.90
4324;DHT22;2175;51.018;6.994;2023-03-24T01:22:18;12.90;99.90
4324;DHT22;2175;51.018;6.994;2023-03-24T01:24:46;12.90;99.90
4324;DHT22;2175;51.018;6.994;2023-03-24T01:27:11;12.80;99.90
4324;DHT22;2175;51.018;6.994;2023-03-24T01:29:38;12.80;99.90
4324;DHT22;2175;51.018;6.994;2023-03-24T01:32:04;12.80;99.90
4324;DHT22;2175;51.018;6.994;2023-03-24T01:34:30;12.80;99.90
4324;DHT22;2175;51.018;6.994;2023-03-24T01:36:56;12.80;99.90
4324;DHT22;2175;51.018;6.994;2023-03-24T01:39:22;12.80;99.90
4324;DHT22;2175;51.018;6.994;2023-03-24T01:41:48;12.80;99.90
4324;DHT22;2175;51.018;6.994;2023-03-24T01:44:35;12.80;99.90
4324;DHT22;2175;51.018;6.994;2023-03-24T01:47:05;12.90;99.90
4324;DHT22;2175;51.018;6.994;2023-03-24T01:49:36;12.90;99.90
4324;DHT22;2175;51.018;6.994;2023-03-24T01:52:10;12.90;99.90
4324;DHT22;2175;51.018;6.994;2023-03-24T01:54:45;13.00;99.90
4324;DHT22;2175;51.018;6.994;2023-03-24T01:57:25;13.10;99.90
4324;DHT22;2175;51.018;6.994;2023-03-24T01:59:54;13.20;99.90
4324;DHT22;2175;51.018;6.994;2023-03-24T02:02:21;13.20;99.90
4324;DHT22;2175;51.018;6.994;2023-03-24T02:04:53;13.20;99.90
4324;DHT22;2175;51.018;6.994;2023-03-24T02:10:04;13.30;99.90
4324;DHT22;2175;51.018;6.994;2023-03-24T02:12:31;13.50;99.90
4324;DHT22;2175;51.018;6.994;2023-03-24T02:14:57;13.50;99.90
4324;DHT22;2175;51.018;6.994;2023-03-24T02:20:41;13.40;99.90
4324;DHT22;2175;51.018;6.994;2023-03-24T02:35:46;13.60;99.90
4324;DHT22;2175;51.018;6.994;2023-03-24T02:40:59;13.70;99.90
4324;DHT22;2175;51.018;6.994;2023-03-24T02:46:43;13.70;99.90
4324;DHT22;2175;51.018;6.994;2023-03-24T02:49:41;13.70;99.90
4324;DHT22;2175;51.018;6.994;2023-03-24T02:52:37;13.70;99.90
4324;DHT22;2175;51.018;6.994;2023-03-24T02:55:21;13.70;99.90
4324;DHT22;2175;51.018;6.994;2023-03-24T02:57:56;13.70;99.90
4324;DHT22;2175;51.018;6.994;2023-03-24T03:03:00;13.70;99.90
4324;DHT22;2175;51.018;6.994;2023-03-24T03:05:32;13.80;99.90
4324;DHT22;2175;51.018;6.994;2023-03-24T03:07:59;13.80;99.90
4324;DHT22;2175;51.018;6.994;2023-03-24T03:10:33;13.80;99.90
4324;DHT22;2175;51.018;6.994;2023-03-24T03:13:01;13.70;99.90
4324;DHT22;2175;51.018;6.994;2023-03-24T03:15:40;13.80;99.90
4324;DHT22;2175;51.018;6.994;2023-03-24T03:18:20;13.90;99.90
4324;DHT22;2175;51.018;6.994;2023-03-24T03:20:50;13.90;99.90
4324;DHT22;2175;51.018;6.994;2023-03-24T03:23:26;13.80;99.90
4324;DHT22;2175;51.018;6.994;2023-03-24T03:25:57;13.80;99.90
4324;DHT22;2175;51.018;6.994;2023-03-24T03:28:32;13.90;99.90
4324;DHT22;2175;51.018;6.994;2023-03-24T03:31:05;13.80;99.90
4324;DHT22;2175;51.018;6.994;2023-03-24T03:33:39;13.70;99.90
4324;DHT22;2175;51.018;6.994;2023-03-24T03:36:27;13.80;99.90
4324;DHT22;2175;51.018;6.994;2023-03-24T03:39:14;13.80;99.90
4324;DHT22;2175;51.018;6.994;2023-03-24T03:41:41;13.70;99.90
4324;DHT22;2175;51.018;6.994;2023-03-24T03:44:07;13.80;99.90
4324;DHT22;2175;51.018;6.994;2023-03-24T03:46:34;13.70;99.90
4324;DHT22;2175;51.018;6.994;2023-03-24T03:49:01;13.70;99.90
4324;DHT22;2175;51.018;6.994;2023-03-24T03:51:27;13.80;99.90
4324;DHT22;2175;51.018;6.994;2023-03-24T03:53:58;13.70;99.90
4324;DHT22;2175;51.018;6.994;2023-03-24T03:56:27;13.80;99.90
4324;DHT22;2175;51.018;6.994;2023-03-24T03:58:53;13.80;99.90
4324;DHT22;2175;51.018;6.994;2023-03-24T04:01:22;13.80;99.90
4324;DHT22;2175;51.018;6.994;2023-03-24T04:07:02;13.80;99.90
4324;DHT22;2175;51.018;6.994;2023-03-24T04:32:13;13.90;99.90
4324;DHT22;2175;51.018;6.994;2023-03-24T04:34:48;14.00;99.90
4324;DHT22;2175;51.018;6.994;2023-03-24T04:37:24;13.90;99.90
4324;DHT22;2175;51.018;6.994;2023-03-24T04:39:52;13.80;99.90
4324;DHT22;2175;51.018;6.994;2023-03-24T04:42:31;13.90;99.90
4324;DHT22;2175;51.018;6.994;2023-03-24T04:44:59;13.80;99.90
4324;DHT22;2175;51.018;6.994;2023-03-24T04:47:28;13.80;99.90
4324;DHT22;2175;51.018;6.994;2023-03-24T04:50:04;13.90;99.90
4324;DHT22;2175;51.018;6.994;2023-03-24T04:52:30;13.90;99.90
4324;DHT22;2175;51.018;6.994;2023-03-24T04:54:56;13.70;99.90
4324;DHT22;2175;51.018;6.994;2023-03-24T04:57:22;13.60;99.90
4324;DHT22;2175;51.018;6.994;2023-03-24T04:59:47;13.40;99.90
4324;DHT22;2175;51.018;6.994;2023-03-24T05:02:13;13.20;99.90
4324;DHT22;2175;51.018;6.994;2023-03-24T05:04:39;13.10;99.90
4324;DHT22;2175;51.018;6.994;2023-03-24T05:07:04;13.00;99.90
4324;DHT22;2175;51.018;6.994;2023-03-24T05:09:30;13.00;99.90
4324;DHT22;2175;51.018;6.994;2023-03-24T05:11:56;12.90;99.90
4324;DHT22;2175;51.018;6.994;2023-03-24T05:14:22;12.90;99.90
4324;DHT22;2175;51.018;6.994;2023-03-24T05:16:48;12.80;99.90
4324;DHT22;2175;51.018;6.994;2023-03-24T05:19:14;12.90;99.90
4324;DHT22;2175;51.018;6.994;2023-03-24T05:21:41;12.70;99.90
4324;DHT22;2175;51.018;6.994;2023-03-24T05:24:06;12.80;99.90
4324;DHT22;2175;51.018;6.994;2023-03-24T05:26:32;12.80;99.90
4324;DHT22;2175;51.018;6.994;2023-03-24T05:28:58;12.80;99.90
4324;DHT22;2175;51.018;6.994;2023-03-24T05:31:24;12.80;99.90
4324;DHT22;2175;51.018;6.994;2023-03-24T05:33:50;12.80;99.90
4324;DHT22;2175;51.018;6.994;2023-03-24T05:36:16;12.70;99.90
4324;DHT22;2175;51.018;6.994;2023-03-24T05:38:42;12.70;99.90
4324;DHT22;2175;51.018;6.994;2023-03-24T05:41:08;12.70;99.90
4324;DHT22;2175;51.018;6.994;2023-03-24T05:43:33;12.70;99.90
4324;DHT22;2175;51.018;6.994;2023-03-24T05:45:59;12.60;99.90
4324;DHT22;2175;51.018;6.994;2023-03-24T05:48:26;12.50;99.90
4324;DHT22;2175;51.018;6.994;2023-03-24T05:50:52;12.60;99.90
4324;DHT22;2175;51.018;6.994;2023-03-24T05:53:18;12.60;99.90
4324;DHT22;2175;51.018;6.994;2023-03-24T05:55:44;12.60;99.90
4324;DHT22;2175;51.018;6.994;2023-03-24T05:58:11;12.60;99.90
4324;DHT22;2175;51.018;6.994;2023-03-24T06:00:36;12.60;99.90
4324;DHT22;2175;51.018;6.994;2023-03-24T06:03:03;12.50;99.90
4324;DHT22;2175;51.018;6.994;2023-03-24T06:05:29;12.50;99.90
4324;DHT22;2175;51.018;6.994;2023-03-24T06:07:55;12.40;99.90
4324;DHT22;2175;51.018;6.994;2023-03-24T06:10:24;12.30;99.90
4324;DHT22;2175;51.018;6.994;2023-03-24T06:12:51;12.20;99.90
4324;DHT22;2175;51.018;6.994;2023-03-24T06:15:17;12.30;99.90
4324;DHT22;2175;51.018;6.994;2023-03-24T06:17:43;12.30;99.90
4324;DHT22;2175;51.018;6.994;2023-03-24T06:20:10;12.20;99.90
4324;DHT22;2175;51.018;6.994;2023-03-24T06:22:42;12.20;99.90
4324;DHT22;2175;51.018;6.994;2023-03-24T06:25:13;12.30;99.90
4324;DHT22;2175;51.018;6.994;2023-03-24T06:27:44;12.30;99.90
4324;DHT22;2175;51.018;6.994;2023-03-24T06:30:14;12.30;99.90
4324;DHT22;2175;51.018;6.994;2023-03-24T06:32:41;12.30;99.90
4324;DHT22;2175;51.018;6.994;2023-03-24T06:35:08;12.30;99.90
4324;DHT22;2175;51.018;6.994;2023-03-24T06:37:33;12.30;99.90
4324;DHT22;2175;51.018;6.994;2023-03-24T06:39:59;12.40;99.90
4324;DHT22;2175;51.018;6.994;2023-03-24T06:42:25;12.40;99.90
4324;DHT22;2175;51.018;6.994;2023-03-24T06:44:51;12.40;99.90
4324;DHT22;2175;51.018;6.994;2023-03-24T06:47:17;12.40;99.90
4324;DHT22;2175;51.018;6.994;2023-03-24T06:49:43;12.40;99.90
4324;DHT22;2175;51.018;6.994;2023-03-24T06:52:09;12.30;99.90
4324;DHT22;2175;51.018;6.994;2023-03-24T06:54:35;12.10;99.90
4324;DHT22;2175;51.018;6.994;2023-03-24T06:57:00;12.00;99.90
4324;DHT22;2175;51.018;6.994;2023-03-24T06:59:26;12.00;99.90
4324;DHT22;2175;51.018;6.994;2023-03-24T07:01:52;12.00;99.90
4324;DHT22;2175;51.018;6.994;2023-03-24T07:04:19;12.00;99.90
4324;DHT22;2175;51.018;6.994;2023-03-24T07:06:45;11.90;99.90
4324;DHT22;2175;51.018;6.994;2023-03-24T07:09:11;12.00;99.90
4324;DHT22;2175;51.018;6.994;2023-03-24T07:11:38;11.90;99.90
4324;DHT22;2175;51.018;6.994;2023-03-24T07:14:03;12.00;99.90
4324;DHT22;2175;51.018;6.994;2023-03-24T07:16:29;11.80;99.90
4324;DHT22;2175;51.018;6.994;2023-03-24T07:18:55;11.80;99.90
4324;DHT22;2175;51.018;6.994;2023-03-24T07:21:21;11.80;99.90
4324;DHT22;2175;51.018;6.994;2023-03-24T07:23:46;11.70;99.90
4324;DHT22;2175;51.018;6.994;2023-03-24T07:26:12;11.70;99.90
4324;DHT22;2175;51.018;6.994;2023-03-24T07:28:37;11.60;99.90
4324;DHT22;2175;51.018;6.994;2023-03-24T07:31:04;11.60;99.90
4324;DHT22;2175;51.018;6.994;2023-03-24T07:33:32;11.70;99.90
4324;DHT22;2175;51.018;6.994;2023-03-24T07:35:57;11.70;99.90
4324;DHT22;2175;51.018;6.994;2023-03-24T07:38:24;11.80;99.90
4324;DHT22;2175;51.018;6.994;2023-03-24T07:40:50;11.80;99.90
4324;DHT22;2175;51.018;6.994;2023-03-24T07:43:18;11.80;99.90
4324;DHT22;2175;51.018;6.994;2023-03-24T07:45:46;12.00;99.90
4324;DHT22;2175;51.018;6.994;2023-03-24T07:48:12;12.10;99.90
4324;DHT22;2175;51.018;6.994;2023-03-24T07:50:38;11.90;99.90
4324;DHT22;2175;51.018;6.994;2023-03-24T07:53:04;11.90;99.90
4324;DHT22;2175;51.018;6.994;2023-03-24T07:55:30;11.90;99.90
4324;DHT22;2175;51.018;6.994;2023-03-24T07:57:55;11.70;99.90
4324;DHT22;2175;51.018;6.994;2023-03-24T08:00:21;11.70;99.90
4324;DHT22;2175;51.018;6.994;2023-03-24T08:02:51;11.70;99.90
4324;DHT22;2175;51.018;6.994;2023-03-24T08:05:23;11.90;99.90
4324;DHT22;2175;51.018;6.994;2023-03-24T08:07:51;12.00;99.90
4324;DHT22;2175;51.018;6.994;2023-03-24T08:10:26;11.80;99.90
4324;DHT22;2175;51.018;6.994;2023-03-24T08:12:53;11.80;99.90
4324;DHT22;2175;51.018;6.994;2023-03-24T08:15:19;11.90;99.90
4324;DHT22;2175;51.018;6.994;2023-03-24T08:17:47;12.00;99.90
4324;DHT22;2175;51.018;6.994;2023-03-24T08:20:13;12.10;99.90
4324;DHT22;2175;51.018;6.994;2023-03-24T08:22:41;12.30;99.90
4324;DHT22;2175;51.018;6.994;2023-03-24T08:25:18;12.20;99.90
4324;DHT22;2175;51.018;6.994;2023-03-24T08:27:45;12.20;99.90
4324;DHT22;2175;51.018;6.994;2023-03-24T08:30:17;12.30;93.80
4324;DHT22;2175;51.018;6.994;2023-03-24T08:32:53;12.80;95.10
4324;DHT22;2175;51.018;6.994;2023-03-24T08:35:22;14.30;79.30
4324;DHT22;2175;51.018;6.994;2023-03-24T08:37:48;15.60;13.50
4324;DHT22;2175;51.018;6.994;2023-03-24T08:40:17;16.40;1.00
4324;DHT22;2175;51.018;6.994;2023-03-24T08:42:51;16.80;1.00
4324;DHT22;2175;51.018;6.994;2023-03-24T08:45:31;17.10;1.00
4324;DHT22;2175;51.018;6.994;2023-03-24T08:47:58;16.00;1.00
4324;DHT22;2175;51.018;6.994;2023-03-24T08:50:27;15.00;1.00
4324;DHT22;2175;51.018;6.994;2023-03-24T08:52:55;14.80;1.00
4324;DHT22;2175;51.018;6.994;2023-03-24T08:55:21;15.80;1.00
4324;DHT22;2175;51.018;6.994;2023-03-24T08:57:47;15.40;1.00
4324;DHT22;2175;51.018;6.994;2023-03-24T09:03:20;14.30;1.00
4324;DHT22;2175;51.018;6.994;2023-03-24T09:05:47;14.30;16.30
4324;DHT22;2175;51.018;6.994;2023-03-24T09:08:15;13.80;8.40
4324;DHT22;2175;51.018;6.994;2023-03-24T09:10:42;14.10;20.20
4324;DHT22;2175;51.018;6.994;2023-03-24T09:13:08;14.60;1.00
4324;DHT22;2175;51.018;6.994;2023-03-24T09:15:33;15.10;1.00
4324;DHT22;2175;51.018;6.994;2023-03-24T09:18:00;14.70;1.00
4324;DHT22;2175;51.018;6.994;2023-03-24T09:20:27;14.70;22.00
4324;DHT22;2175;51.018;6.994;2023-03-24T09:22:52;14.70;1.00
4324;DHT22;2175;51.018;6.994;2023-03-24T09:25:20;14.30;1.00
4324;DHT22;2175;51.018;6.994;2023-03-24T09:27:46;13.90;9.10
4324;DHT22;2175;51.018;6.994;2023-03-24T09:30:13;13.90;6.40
4324;DHT22;2175;51.018;6.994;2023-03-24T09:32:40;13.70;5.90
4324;DHT22;2175;51.018;6.994;2023-03-24T09:35:06;13.60;1.00
4324;DHT22;2175;51.018;6.994;2023-03-24T09:37:33;13.50;2.70
4324;DHT22;2175;51.018;6.994;2023-03-24T09:39:59;13.60;1.00
4324;DHT22;2175;51.018;6.994;2023-03-24T09:42:29;13.40;1.00
4324;DHT22;2175;51.018;6.994;2023-03-24T09:44:58;13.80;1.00
4324;DHT22;2175;51.018;6.994;2023-03-24T09:47:38;14.00;1.00
4324;DHT22;2175;51.018;6.994;2023-03-24T09:53:45;13.90;1.00
4324;DHT22;2175;51.018;6.994;2023-03-24T09:56:16;14.10;1.00
4324;DHT22;2175;51.018;6.994;2023-03-24T09:58:43;14.30;1.00
4324;DHT22;2175;51.018;6.994;2023-03-24T10:01:14;14.30;1.00
4324;DHT22;2175;51.018;6.994;2023-03-24T10:03:44;14.10;1.00
4324;DHT22;2175;51.018;6.994;2023-03-24T10:06:17;14.00;1.00
4324;DHT22;2175;51.018;6.994;2023-03-24T10:09:04;13.90;1.00
4324;DHT22;2175;51.018;6.994;2023-03-24T10:11:45;13.50;2.30
4324;DHT22;2175;51.018;6.994;2023-03-24T10:26:03;14.60;1.00
4324;DHT22;2175;51.018;6.994;2023-03-24T10:31:15;14.90;1.00
4324;DHT22;2175;51.018;6.994;2023-03-24T10:33:43;14.80;1.00
4324;DHT22;2175;51.018;6.994;2023-03-24T10:36:15;14.70;1.00
4324;DHT22;2175;51.018;6.994;2023-03-24T10:38:42;14.70;1.00
4324;DHT22;2175;51.018;6.994;2023-03-24T10:41:15;14.50;1.00
4324;DHT22;2175;51.018;6.994;2023-03-24T10:43:43;14.10;1.00
4324;DHT22;2175;51.018;6.994;2023-03-24T10:46:13;14.10;1.00
4324;DHT22;2175;51.018;6.994;2023-03-24T10:51:05;13.70;1.00
4324;DHT22;2175;51.018;6.994;2023-03-24T10:53:31;13.70;1.00
4324;DHT22;2175;51.018;6.994;2023-03-24T10:55:58;14.20;1.00
4324;DHT22;2175;51.018;6.994;2023-03-24T10:58:38;14.50;1.00
4324;DHT22;2175;51.018;6.994;2023-03-24T11:01:25;14.70;1.00
4324;DHT22;2175;51.018;6.994;2023-03-24T11:04:00;14.60;1.00
4324;DHT22;2175;51.018;6.994;2023-03-24T11:06:30;14.40;1.00
4324;DHT22;2175;51.018;6.994;2023-03-24T11:09:17;14.00;1.00
4324;DHT22;2175;51.018;6.994;2023-03-24T11:11:43;13.90;1.00
4324;DHT22;2175;51.018;6.994;2023-03-24T11:14:22;13.90;1.00
4324;DHT22;2175;51.018;6.994;2023-03-24T11:16:51;13.90;1.00
4324;DHT22;2175;51.018;6.994;2023-03-24T11:19:21;13.90;1.00
4324;DHT22;2175;51.018;6.994;2023-03-24T11:21:48;14.20;1.00
4324;DHT22;2175;51.018;6.994;2023-03-24T11:24:17;14.10;1.00
4324;DHT22;2175;51.018;6.994;2023-03-24T11:26:52;14.30;1.00
4324;DHT22;2175;51.018;6.994;2023-03-24T11:29:22;14.40;1.00
4324;DHT22;2175;51.018;6.994;2023-03-24T11:31:53;14.40;1.00
4324;DHT22;2175;51.018;6.994;2023-03-24T11:37:15;14.30;1.00
4324;DHT22;2175;51.018;6.994;2023-03-24T11:39:42;14.40;1.00
4324;DHT22;2175;51.018;6.994;2023-03-24T11:42:16;14.60;1.00
4324;DHT22;2175;51.018;6.994;2023-03-24T11:50:16;14.70;1.00
4324;DHT22;2175;51.018;6.994;2023-03-24T11:55:43;15.00;1.00
4324;DHT22;2175;51.018;6.994;2023-03-24T12:01:05;15.20;1.00
4324;DHT22;2175;51.018;6.994;2023-03-24T12:09:14;14.60;1.00
4324;DHT22;2175;51.018;6.994;2023-03-24T12:15:07;14.40;1.00
4324;DHT22;2175;51.018;6.994;2023-03-24T12:17:14;14.50;1.00
4324;DHT22;2175;51.018;6.994;2023-03-24T12:24:46;14.90;1.00
4324;DHT22;2175;51.018;6.994;2023-03-24T12:27:40;15.20;1.00
4324;DHT22;2175;51.018;6.994;2023-03-24T12:30:15;15.20;99.90
4324;DHT22;2175;51.018;6.994;2023-03-24T12:32:56;15.30;1.00
4324;DHT22;2175;51.018;6.994;2023-03-24T12:38:41;15.50;99.90
4324;DHT22;2175;51.018;6.994;2023-03-24T12:55:16;14.90;99.90
4324;DHT22;2175;51.018;6.994;2023-03-24T12:57:51;15.00;99.90
4324;DHT22;2175;51.018;6.994;2023-03-24T13:00:24;14.90;99.90
4324;DHT22;2175;51.018;6.994;2023-03-24T13:02:56;14.90;99.90
4324;DHT22;2175;51.018;6.994;2023-03-24T13:05:30;14.90;99.90
4324;DHT22;2175;51.018;6.994;2023-03-24T13:08:01;14.90;99.90
4324;DHT22;2175;51.018;6.994;2023-03-24T13:10:29;14.90;99.90
4324;DHT22;2175;51.018;6.994;2023-03-24T13:15:55;15.00;99.90
4324;DHT22;2175;51.018;6.994;2023-03-24T13:18:33;15.10;99.90
4324;DHT22;2175;51.018;6.994;2023-03-24T13:21:05;15.20;99.90
4324;DHT22;2175;51.018;6.994;2023-03-24T13:31:55;14.90;99.90
4324;DHT22;2175;51.018;6.994;2023-03-24T13:34:33;15.20;99.90
4324;DHT22;2175;51.018;6.994;2023-03-24T13:37:24;15.40;99.90
4324;DHT22;2175;51.018;6.994;2023-03-24T13:39:55;15.50;99.90
4324;DHT22;2175;51.018;6.994;2023-03-24T13:42:32;15.40;99.90
4324;DHT22;2175;51.018;6.994;2023-03-24T13:45:03;15.60;99.90
4324;DHT22;2175;51.018;6.994;2023-03-24T13:50:36;15.60;99.90
4324;DHT22;2175;51.018;6.994;2023-03-24T13:53:13;15.90;99.90
4324;DHT22;2175;51.018;6.994;2023-03-24T13:55:39;15.90;99.90
4324;DHT22;2175;51.018;6.994;2023-03-24T13:58:21;15.80;99.90
4324;DHT22;2175;51.018;6.994;2023-03-24T14:03:43;15.70;99.90
4324;DHT22;2175;51.018;6.994;2023-03-24T14:06:14;15.80;99.90
4324;DHT22;2175;51.018;6.994;2023-03-24T14:12:06;15.70;99.90
4324;DHT22;2175;51.018;6.994;2023-03-24T14:15:01;15.50;99.90
4324;DHT22;2175;51.018;6.994;2023-03-24T14:17:23;15.30;99.90
4324;DHT22;2175;51.018;6.994;2023-03-24T14:22:32;14.80;99.90
4324;DHT22;2175;51.018;6.994;2023-03-24T14:27:53;13.40;54.00
4324;DHT22;2175;51.018;6.994;2023-03-24T14:30:23;13.50;13.80
4324;DHT22;2175;51.018;6.994;2023-03-24T14:32:58;13.80;12.60
4324;DHT22;2175;51.018;6.994;2023-03-24T14:38:20;13.80;1.00
4324;DHT22;2175;51.018;6.994;2023-03-24T14:40:51;13.80;1.00
4324;DHT22;2175;51.018;6.994;2023-03-24T14:46:02;14.10;1.00
4324;DHT22;2175;51.018;6.994;2023-03-24T14:50:58;14.10;1.00
4324;DHT22;2175;51.018;6.994;2023-03-24T14:53:25;14.10;1.00
4324;DHT22;2175;51.018;6.994;2023-03-24T14:55:52;14.10;1.00
4324;DHT22;2175;51.018;6.994;2023-03-24T14:58:30;14.40;1.00
4324;DHT22;2175;51.018;6.994;2023-03-24T15:01:02;14.70;1.00
4324;DHT22;2175;51.018;6.994;2023-03-24T15:06:23;14.90;1.00
4324;DHT22;2175;51.018;6.994;2023-03-24T15:08:52;14.90;1.00
4324;DHT22;2175;51.018;6.994;2023-03-24T15:11:23;14.90;1.00
4324;DHT22;2175;51.018;6.994;2023-03-24T15:13:52;14.80;1.00
4324;DHT22;2175;51.018;6.994;2023-03-24T15:16:21;14.60;99.90
4324;DHT22;2175;51.018;6.994;2023-03-24T15:19:09;14.80;99.90
4324;DHT22;2175;51.018;6.994;2023-03-24T15:21:44;14.90;99.90
4324;DHT22;2175;51.018;6.994;2023-03-24T15:26:49;15.10;99.90
4324;DHT22;2175;51.018;6.994;2023-03-24T15:29:16;14.90;99.90
4324;DHT22;2175;51.018;6.994;2023-03-24T15:31:48;14.80;99.90
4324;DHT22;2175;51.018;6.994;2023-03-24T15:42:06;14.80;99.90
4324;DHT22;2175;51.018;6.994;2023-03-24T15:45:26;14.70;99.90
4324;DHT22;2175;51.018;6.994;2023-03-24T15:47:53;14.70;99.90
4324;DHT22;2175;51.018;6.994;2023-03-24T15:53:03;14.60;99.90
4324;DHT22;2175;51.018;6.994;2023-03-24T15:55:32;14.50;99.90
4324;DHT22;2175;51.018;6.994;2023-03-24T15:58:00;14.40;99.90
4324;DHT22;2175;51.018;6.994;2023-03-24T16:00:39;14.40;99.90
4324;DHT22;2175;51.018;6.994;2023-03-24T16:03:09;14.30;99.90
4324;DHT22;2175;51.018;6.994;2023-03-24T16:05:45;14.30;99.90
4324;DHT22;2175;51.018;6.994;2023-03-24T16:08:32;14.30;99.90
4324;DHT22;2175;51.018;6.994;2023-03-24T16:11:11;14.30;99.90
4324;DHT22;2175;51.018;6.994;2023-03-24T16:13:39;14.20;99.90
4324;DHT22;2175;51.018;6.994;2023-03-24T16:18:44;14.10;1.00
4324;DHT22;2175;51.018;6.994;2023-03-24T16:23:49;12.50;99.90
4324;DHT22;2175;51.018;6.994;2023-03-24T16:28:51;11.50;99.90
4324;DHT22;2175;51.018;6.994;2023-03-24T16:33:50;11.50;99.90
4324;DHT22;2175;51.018;6.994;2023-03-24T16:36:16;11.50;99.90
4324;DHT22;2175;51.018;6.994;2023-03-24T16:38:44;11.40;99.90
4324;DHT22;2175;51.018;6.994;2023-03-24T16:41:10;11.40;99.90
4324;DHT22;2175;51.018;6.994;2023-03-24T16:43:38;11.30;99.90
4324;DHT22;2175;51.018;6.994;2023-03-24T16:46:05;11.40;99.90
4324;DHT22;2175;51.018;6.994;2023-03-24T16:48:31;11.30;99.90
4324;DHT22;2175;51.018;6.994;2023-03-24T16:50:56;11.40;99.90
4324;DHT22;2175;51.018;6.994;2023-03-24T16:53:22;11.40;99.90
4324;DHT22;2175;51.018;6.994;2023-03-24T16:55:48;11.30;99.90
4324;DHT22;2175;51.018;6.994;2023-03-24T16:58:15;11.30;99.90
4324;DHT22;2175;51.018;6.994;2023-03-24T17:00:42;11.20;99.90
4324;DHT22;2175;51.018;6.994;2023-03-24T17:03:13;11.00;99.90
4324;DHT22;2175;51.018;6.994;2023-03-24T17:05:43;11.00;99.90
4324;DHT22;2175;51.018;6.994;2023-03-24T17:08:11;11.20;99.90
4324;DHT22;2175;51.018;6.994;2023-03-24T17:10:39;11.30;99.90
4324;DHT22;2175;51.018;6.994;2023-03-24T17:13:05;11.10;99.90
4324;DHT22;2175;51.018;6.994;2023-03-24T17:15:31;11.20;99.90
4324;DHT22;2175;51.018;6.994;2023-03-24T17:17:58;11.30;99.90
4324;DHT22;2175;51.018;6.994;2023-03-24T17:20:25;11.20;99.90
4324;DHT22;2175;51.018;6.994;2023-03-24T17:22:54;11.30;99.90
4324;DHT22;2175;51.018;6.994;2023-03-24T17:25:22;11.30;99.90
4324;DHT22;2175;51.018;6.994;2023-03-24T17:27:50;11.20;99.90
4324;DHT22;2175;51.018;6.994;2023-03-24T17:30:21;11.10;99.90
4324;DHT22;2175;51.018;6.994;2023-03-24T17:32:48;10.90;99.90
4324;DHT22;2175;51.018;6.994;2023-03-24T17:35:17;10.80;99.90
4324;DHT22;2175;51.018;6.994;2023-03-24T17:37:44;10.60;99.90
4324;DHT22;2175;51.018;6.994;2023-03-24T17:40:10;10.60;99.90
4324;DHT22;2175;51.018;6.994;2023-03-24T17:42:43;10.60;99.90
4324;DHT22;2175;51.018;6.994;2023-03-24T17:45:11;10.60;99.90
4324;DHT22;2175;51.018;6.994;2023-03-24T17:47:38;10.60;99.90
4324;DHT22;2175;51.018;6.994;2023-03-24T17:50:05;10.40;99.90
4324;DHT22;2175;51.018;6.994;2023-03-24T17:52:41;10.50;99.90
4324;DHT22;2175;51.018;6.994;2023-03-24T17:55:07;10.50;99.90
4324;DHT22;2175;51.018;6.994;2023-03-24T17:57:33;10.40;99.90
4324;DHT22;2175;51.018;6.994;2023-03-24T17:59:59;10.40;99.90
4324;DHT22;2175;51.018;6.994;2023-03-24T18:02:25;10.30;99.90
4324;DHT22;2175;51.018;6.994;2023-03-24T18:04:51;10.30;99.90
4324;DHT22;2175;51.018;6.994;2023-03-24T18:07:16;10.30;99.90
4324;DHT22;2175;51.018;6.994;2023-03-24T18:09:42;10.20;99.90
4324;DHT22;2175;51.018;6.994;2023-03-24T18:12:08;10.20;99.90
4324;DHT22;2175;51.018;6.994;2023-03-24T18:14:33;10.10;99.90
4324;DHT22;2175;51.018;6.994;2023-03-24T18:16:59;10.10;99.90
4324;DHT22;2175;51.018;6.994;2023-03-24T18:19:25;10.00;99.90
4324;DHT22;2175;51.018;6.994;2023-03-24T18:21:51;10.00;99.90
4324;DHT22;2175;51.018;6.994;2023-03-24T18:24:16;9.90;99.90
4324;DHT22;2175;51.018;6.994;2023-03-24T18:26:42;9.80;99.90
4324;DHT22;2175;51.018;6.994;2023-03-24T18:29:07;9.80;99.90
4324;DHT22;2175;51.018;6.994;2023-03-24T18:31:33;9.70;99.90
4324;DHT22;2175;51.018;6.994;2023-03-24T18:33:59;9.70;99.90
4324;DHT22;2175;51.018;6.994;2023-03-24T18:36:24;9.50;99.90
4324;DHT22;2175;51.018;6.994;2023-03-24T18:39:08;9.50;99.90
4324;DHT22;2175;51.018;6.994;2023-03-24T18:41:34;9.50;99.90
4324;DHT22;2175;51.018;6.994;2023-03-24T18:44:13;9.70;99.90
4324;DHT22;2175;51.018;6.994;2023-03-24T18:46:40;9.70;99.90
4324;DHT22;2175;51.018;6.994;2023-03-24T18:49:06;9.70;99.90
4324;DHT22;2175;51.018;6.994;2023-03-24T18:51:32;9.70;99.90
4324;DHT22;2175;51.018;6.994;2023-03-24T18:54:00;9.80;99.90
4324;DHT22;2175;51.018;6.994;2023-03-24T18:56:25;9.90;99.90
4324;DHT22;2175;51.018;6.994;2023-03-24T18:58:51;9.90;99.90
4324;DHT22;2175;51.018;6.994;2023-03-24T19:01:18;10.00;99.90
4324;DHT22;2175;51.018;6.994;2023-03-24T19:03:47;10.00;99.90
4324;DHT22;2175;51.018;6.994;2023-03-24T19:06:14;10.00;99.90
4324;DHT22;2175;51.018;6.994;2023-03-24T19:08:43;9.90;99.90
4324;DHT22;2175;51.018;6.994;2023-03-24T19:11:10;9.90;99.90
4324;DHT22;2175;51.018;6.994;2023-03-24T19:13:36;9.90;99.90
4324;DHT22;2175;51.018;6.994;2023-03-24T19:16:03;10.00;99.90
4324;DHT22;2175;51.018;6.994;2023-03-24T19:18:29;10.00;99.90
4324;DHT22;2175;51.018;6.994;2023-03-24T19:20:56;10.10;99.90